Strona główna
METAR-TAF:

METAR-TAF

Lotnisko :

Port lotniczy Tarakan-Juwata

Tarakan, Indonezja

Szerokość geograficzna: 03-19-36N, Długość geograficzna: 117-33-56E, wysokość: 6 m

Aktualna obserwacja pogody

Raport powstał 1 godzina i 14 minut temu, godzina 10:00 UTC
Cisza
Temperatura 30°C
Wilgotność 75%
Ciśnienie 1009 hPa
Widzialność: 9000 m
Rozproszone chmury na wysokości 1500 ft

METAR: WAQQ 241000Z 00000KT 9000 SCT015 30/25 Q1009

czas: 18:14 (11:14 UTC)

Prognoza

Raport powstał 6 godziny i 14 minut temu, godzina 05:00 UTC
Prognoza ważna od 24 godzina 06 UTC do 25 godzina 12 UTC
Wiatr 6 kt od zachód
Widzialność 10 km lub więcej
Rozproszone chmury na wysokości 1500 ft
Stopniowe zmiany
od 24 godzina 10 UTC do 24 godzina 12 UTC
Wiatr kt od północ
Widzialność: 8000 m

TAF: WAQQ 240500Z 2406/2512 27006KT 9999 SCT015 BECMG 2410/2412 00000KT 8000

Obserwacja i prognoza pogody dla ponad 4000 lotnisk (raport METAR i TAF).

Dostępne stacje oznaczono żółtymi i czerwonymi punktami na mapie.

Najedź kursorem aby zobaczyć nazwę stacji.

Kliknij aby zobaczyć obserwacje i prognozy pogody.

Aby zmienić mapę: kliknij na zielony przycisk z czarnym krzyżykiem, aby powiększyć; na zielony przycisk z myślnikiem, aby pomniejszyć; na zielone strzałki, aby przejść do map sąsiednich.


METAR-TAF: